Time;durP1;ratioP1;P1;durP2;ratioP2;P2;SDS_P1;SDS_P2;PMS_P1;PMS_P2;Temp;Humidity;BMP_temperature;BMP_pressure;BME280_temperature;BME280_humidity;BME280_pressure;Samples;Min_cycle;Max_cycle;Signal;HPM_P1;HPM_P2
2023/06/15 00:01:24;;;;;;;;;;;18.40;69.90;;;;;;5070998;28;20457;-41
2023/06/15 00:03:51;;;;;;;;;;;18.40;69.80;;;;;;5050827;28;20403;-41
2023/06/15 00:06:18;;;;;;;;;;;18.30;70.10;;;;;;5051986;28;19931;-41
2023/06/15 00:08:44;;;;;;;;;;;18.30;69.80;;;;;;5071123;28;20015;-40
2023/06/15 00:11:11;;;;;;;;;;;18.30;70.00;;;;;;5066176;28;19932;-40
2023/06/15 00:13:39;;;;;;;;;;;18.30;69.80;;;;;;5068301;28;20002;-40
2023/06/15 00:16:06;;;;;;;;;;;18.20;70.20;;;;;;5069107;28;20441;-41
2023/06/15 00:18:37;;;;;;;;;;;18.20;70.00;;;;;;5053846;28;20426;-40
2023/06/15 00:21:04;;;;;;;;;;;18.20;70.00;;;;;;5070587;28;19931;-40
2023/06/15 00:23:32;;;;;;;;;;;18.10;70.10;;;;;;5070498;28;20352;-40
2023/06/15 00:25:59;;;;;;;;;;;18.10;70.00;;;;;;5069872;28;19995;-40
2023/06/15 00:28:26;;;;;;;;;;;18.10;69.90;;;;;;5071321;28;20269;-40
2023/06/15 00:30:54;;;;;;;;;;;18.10;70.30;;;;;;5056493;28;19924;-40
2023/06/15 00:33:20;;;;;;;;;;;18.00;70.60;;;;;;5078464;28;19971;-40
2023/06/15 00:35:47;;;;;;;;;;;18.00;70.50;;;;;;5074576;28;20342;-41
2023/06/15 00:38:13;;;;;;;;;;;17.90;70.80;;;;;;5056377;28;19974;-40
2023/06/15 00:40:40;;;;;;;;;;;17.90;71.10;;;;;;5076161;28;19928;-40
2023/06/15 00:43:07;;;;;;;;;;;17.80;70.70;;;;;;5057663;28;19963;-40
2023/06/15 00:45:33;;;;;;;;;;;17.80;70.70;;;;;;5074371;28;20441;-40
2023/06/15 00:48:01;;;;;;;;;;;17.80;71.50;;;;;;5056861;28;19936;-39
2023/06/15 00:50:30;;;;;;;;;;;17.70;71.00;;;;;;5074271;28;19924;-40
2023/06/15 00:52:57;;;;;;;;;;;17.70;71.70;;;;;;5074578;28;20379;-40
2023/06/15 00:55:23;;;;;;;;;;;17.60;71.20;;;;;;5074811;28;19993;-40
2023/06/15 00:57:50;;;;;;;;;;;17.60;70.70;;;;;;5073675;28;20007;-40
2023/06/15 01:00:17;;;;;;;;;;;17.60;70.90;;;;;;5077610;28;19994;-40
2023/06/15 01:02:44;;;;;;;;;;;17.50;70.80;;;;;;5056584;28;19928;-40
2023/06/15 01:05:16;;;;;;;;;;;17.60;70.90;;;;;;5074107;28;20388;-40
2023/06/15 01:07:47;;;;;;;;;;;17.50;71.10;;;;;;5057187;28;19925;-40
2023/06/15 01:10:14;;;;;;;;;;;17.40;71.10;;;;;;5074217;28;20399;-39
2023/06/15 01:12:41;;;;;;;;;;;17.40;70.80;;;;;;5064523;28;19971;-40
2023/06/15 01:15:08;;;;;;;;;;;17.40;71.30;;;;;;5074127;28;20303;-41
2023/06/15 01:17:35;;;;;;;;;;;17.40;71.40;;;;;;5077528;28;19928;-41
2023/06/15 01:20:08;;;;;;;;;;;17.40;71.40;;;;;;5080738;28;19924;-40
2023/06/15 01:22:45;;;;;;;;;;;17.30;71.20;;;;;;5056213;28;19982;-40
2023/06/15 01:25:16;;;;;;;;;;;17.30;71.40;;;;;;5066548;28;20354;-36
2023/06/15 01:27:44;;;;;;;;;;;17.30;71.50;;;;;;5061637;28;19925;-41
2023/06/15 01:30:12;;;;;;;;;;;17.20;71.80;;;;;;5055203;28;19928;-40
2023/06/15 01:32:38;;;;;;;;;;;17.20;71.60;;;;;;5054839;28;20368;-40
2023/06/15 01:35:05;;;;;;;;;;;17.20;71.60;;;;;;5054126;28;19925;-40
2023/06/15 01:37:32;;;;;;;;;;;17.10;72.00;;;;;;5068457;28;20022;-41
2023/06/15 01:39:59;;;;;;;;;;;17.10;73.40;;;;;;5049708;28;20361;-40
2023/06/15 01:42:25;;;;;;;;;;;17.00;74.20;;;;;;5054556;28;19931;-38
2023/06/15 01:44:55;;;;;;;;;;;16.90;73.30;;;;;;5059942;28;19928;-40
2023/06/15 01:47:22;;;;;;;;;;;16.80;73.30;;;;;;5068437;28;19970;-40
2023/06/15 01:49:48;;;;;;;;;;;16.80;73.30;;;;;;5061923;28;19925;-40
2023/06/15 01:52:15;;;;;;;;;;;16.80;73.50;;;;;;5053713;28;19982;-40
2023/06/15 01:54:42;;;;;;;;;;;16.80;72.80;;;;;;5036367;28;19925;-40
2023/06/15 01:57:08;;;;;;;;;;;16.70;72.90;;;;;;5072394;28;19924;-41
2023/06/15 01:59:35;;;;;;;;;;;16.70;73.00;;;;;;5074071;28;19960;-40
2023/06/15 02:02:03;;;;;;;;;;;16.70;72.90;;;;;;5061989;28;19932;-40
2023/06/15 02:04:30;;;;;;;;;;;16.70;72.70;;;;;;5053342;28;19925;-39
2023/06/15 02:06:57;;;;;;;;;;;16.70;72.90;;;;;;5053657;28;21239;-40
2023/06/15 02:09:23;;;;;;;;;;;16.60;73.10;;;;;;5036016;28;19925;-40
2023/06/15 02:11:50;;;;;;;;;;;16.60;73.40;;;;;;5053645;28;19925;-39
2023/06/15 02:14:17;;;;;;;;;;;16.60;73.60;;;;;;5035740;28;19951;-40
2023/06/15 02:16:44;;;;;;;;;;;16.50;73.50;;;;;;5070865;28;19929;-40
2023/06/15 02:19:12;;;;;;;;;;;16.50;73.80;;;;;;5073803;28;19925;-40
2023/06/15 02:21:40;;;;;;;;;;;16.50;73.50;;;;;;5072405;28;20007;-40
2023/06/15 02:24:07;;;;;;;;;;;16.40;73.60;;;;;;5080030;28;19924;-41
2023/06/15 02:26:33;;;;;;;;;;;16.40;73.90;;;;;;5073053;28;20300;-40
2023/06/15 02:29:00;;;;;;;;;;;16.30;73.60;;;;;;5071665;28;19990;-39
2023/06/15 02:31:27;;;;;;;;;;;16.30;73.70;;;;;;5072570;28;19971;-40
2023/06/15 02:33:53;;;;;;;;;;;16.20;73.80;;;;;;5072201;28;20011;-39
2023/06/15 02:36:22;;;;;;;;;;;16.30;73.90;;;;;;5068363;28;20435;-40
2023/06/15 02:38:49;;;;;;;;;;;16.20;73.90;;;;;;5072485;28;20007;-39
2023/06/15 02:41:16;;;;;;;;;;;16.20;73.80;;;;;;5054851;28;19928;-40
2023/06/15 02:43:42;;;;;;;;;;;16.20;74.10;;;;;;5072280;28;20378;-41
2023/06/15 02:46:09;;;;;;;;;;;16.10;74.10;;;;;;5071649;28;20376;-41
2023/06/15 02:48:35;;;;;;;;;;;16.10;74.20;;;;;;5071887;28;20376;-38
2023/06/15 02:51:02;;;;;;;;;;;16.10;74.10;;;;;;5054526;28;19929;-39
2023/06/15 02:53:30;;;;;;;;;;;16.00;74.10;;;;;;5073988;28;19936;-40
2023/06/15 02:55:57;;;;;;;;;;;16.00;74.50;;;;;;5073388;28;19924;-40
2023/06/15 02:58:25;;;;;;;;;;;16.00;75.60;;;;;;5071769;28;19924;-37
2023/06/15 03:00:52;;;;;;;;;;;16.00;74.80;;;;;;5068085;28;19925;-40
2023/06/15 03:03:22;;;;;;;;;;;16.00;74.90;;;;;;5054487;28;19924;-40
2023/06/15 03:05:49;;;;;;;;;;;15.90;75.40;;;;;;5071751;28;19925;-36
2023/06/15 03:08:16;;;;;;;;;;;15.80;74.80;;;;;;5071853;28;19980;-39
2023/06/15 03:10:44;;;;;;;;;;;15.80;75.00;;;;;;5071350;28;19924;-39
2023/06/15 03:13:11;;;;;;;;;;;15.80;74.70;;;;;;5071578;28;19925;-40
2023/06/15 03:15:38;;;;;;;;;;;15.80;75.20;;;;;;5053371;28;20430;-36
2023/06/15 03:18:07;;;;;;;;;;;15.80;75.40;;;;;;5071908;28;19925;-41
2023/06/15 03:20:33;;;;;;;;;;;15.70;76.10;;;;;;5083262;28;19974;-39
2023/06/15 03:23:00;;;;;;;;;;;15.60;76.40;;;;;;5081167;28;19930;-40
2023/06/15 03:25:29;;;;;;;;;;;15.60;76.50;;;;;;5054029;28;19970;-40
2023/06/15 03:27:59;;;;;;;;;;;15.60;76.40;;;;;;5053558;28;19928;-38
2023/06/15 03:30:25;;;;;;;;;;;15.50;76.20;;;;;;5070782;28;19925;-38
2023/06/15 03:32:53;;;;;;;;;;;15.50;77.10;;;;;;5070950;28;19925;-40
2023/06/15 03:35:19;;;;;;;;;;;15.50;76.60;;;;;;5071853;28;20637;-40
2023/06/15 03:37:46;;;;;;;;;;;15.50;76.50;;;;;;5053798;28;20388;-40
2023/06/15 03:40:13;;;;;;;;;;;15.50;76.40;;;;;;5071564;28;20002;-35
2023/06/15 03:42:39;;;;;;;;;;;15.40;76.60;;;;;;5072167;28;19985;-40
2023/06/15 03:45:08;;;;;;;;;;;15.40;76.60;;;;;;5071829;28;20003;-40
2023/06/15 03:47:35;;;;;;;;;;;15.40;76.80;;;;;;5074232;28;19928;-40
2023/06/15 03:50:01;;;;;;;;;;;15.40;76.10;;;;;;5084622;28;19929;-39
2023/06/15 03:52:32;;;;;;;;;;;15.40;76.10;;;;;;5088129;28;19928;-40
2023/06/15 03:54:59;;;;;;;;;;;15.40;76.80;;;;;;5052280;28;20444;-39
2023/06/15 03:57:26;;;;;;;;;;;15.50;76.20;;;;;;5070479;28;20303;-39
2023/06/15 03:59:52;;;;;;;;;;;15.50;76.40;;;;;;5071263;28;20356;-40
2023/06/15 04:02:20;;;;;;;;;;;15.50;76.50;;;;;;5046960;28;20461;-40
2023/06/15 04:04:47;;;;;;;;;;;15.50;76.80;;;;;;5055878;28;20288;-39
2023/06/15 04:07:17;;;;;;;;;;;15.50;76.70;;;;;;5055649;28;19979;-40
2023/06/15 04:09:43;;;;;;;;;;;15.40;76.70;;;;;;5075275;28;19970;-39
2023/06/15 04:12:10;;;;;;;;;;;15.50;76.60;;;;;;5066216;28;20012;-40
2023/06/15 04:14:37;;;;;;;;;;;15.50;76.70;;;;;;5041479;28;19929;-36
2023/06/15 04:17:04;;;;;;;;;;;15.50;76.80;;;;;;5080297;28;19974;-37
2023/06/15 04:19:31;;;;;;;;;;;15.50;77.60;;;;;;5064739;28;19928;-40
2023/06/15 04:21:58;;;;;;;;;;;15.50;77.10;;;;;;5075454;28;19925;-41
2023/06/15 04:24:25;;;;;;;;;;;15.50;78.00;;;;;;5074735;28;19935;-39
2023/06/15 04:26:51;;;;;;;;;;;15.50;81.00;;;;;;5074795;28;20007;-41
2023/06/15 04:29:18;;;;;;;;;;;15.60;79.90;;;;;;5074657;28;20384;-41
2023/06/15 04:31:46;;;;;;;;;;;15.60;79.90;;;;;;5073445;28;19931;-40
2023/06/15 04:34:15;;;;;;;;;;;15.50;80.40;;;;;;5075401;28;19932;-37
2023/06/15 04:36:44;;;;;;;;;;;15.60;79.50;;;;;;5074549;28;19973;-40
2023/06/15 04:39:10;;;;;;;;;;;15.60;79.90;;;;;;5056791;28;19972;-40
2023/06/15 04:41:39;;;;;;;;;;;15.60;80.60;;;;;;5074980;28;19928;-38
2023/06/15 04:44:05;;;;;;;;;;;15.60;83.50;;;;;;5081742;28;19930;-39
2023/06/15 04:46:32;;;;;;;;;;;15.60;84.30;;;;;;5063269;28;19959;-40
2023/06/15 04:49:00;;;;;;;;;;;15.60;81.60;;;;;;5073342;28;20016;-40
2023/06/15 04:51:27;;;;;;;;;;;15.70;83.50;;;;;;5057326;28;20039;-39
2023/06/15 04:53:56;;;;;;;;;;;15.70;80.80;;;;;;5073745;28;19924;-40
2023/06/15 04:56:22;;;;;;;;;;;15.70;81.10;;;;;;5056685;28;19929;-40
2023/06/15 04:58:49;;;;;;;;;;;15.70;81.20;;;;;;5056345;28;19978;-40
2023/06/15 05:01:16;;;;;;;;;;;15.80;81.20;;;;;;5072711;28;19932;-40
2023/06/15 05:03:42;;;;;;;;;;;15.80;82.60;;;;;;5052406;28;20021;-39
2023/06/15 05:06:09;;;;;;;;;;;15.90;81.30;;;;;;5054744;28;19964;-40
2023/06/15 05:08:35;;;;;;;;;;;16.00;81.30;;;;;;5050315;28;19924;-40
2023/06/15 05:11:04;;;;;;;;;;;16.00;83.60;;;;;;5080605;28;19929;-40
2023/06/15 05:13:31;;;;;;;;;;;16.10;81.50;;;;;;5056618;28;19956;-40
2023/06/15 05:15:57;;;;;;;;;;;16.10;81.40;;;;;;5071983;28;19994;-40
2023/06/15 05:18:24;;;;;;;;;;;16.20;81.00;;;;;;5069572;28;20351;-38
2023/06/15 05:20:50;;;;;;;;;;;16.30;81.50;;;;;;5056317;28;19925;-40
2023/06/15 05:23:18;;;;;;;;;;;16.30;82.90;;;;;;5067917;28;19974;-40
2023/06/15 05:25:45;;;;;;;;;;;16.40;83.50;;;;;;5053418;28;19924;-40
2023/06/15 05:28:13;;;;;;;;;;;16.50;83.10;;;;;;5073287;28;20322;-40
2023/06/15 05:30:39;;;;;;;;;;;16.60;83.50;;;;;;5070681;28;19986;-40
2023/06/15 05:33:06;;;;;;;;;;;16.70;81.80;;;;;;5055058;28;19970;-40
2023/06/15 05:35:33;;;;;;;;;;;16.90;81.20;;;;;;5072933;28;19924;-40
2023/06/15 05:37:59;;;;;;;;;;;17.00;82.60;;;;;;5051647;28;20029;-39
2023/06/15 05:40:26;;;;;;;;;;;17.10;81.00;;;;;;5059504;28;19986;-39
2023/06/15 05:42:54;;;;;;;;;;;17.20;80.20;;;;;;5067778;28;20430;-40
2023/06/15 05:45:22;;;;;;;;;;;17.40;80.60;;;;;;5070202;28;19974;-40
2023/06/15 05:47:49;;;;;;;;;;;17.50;79.90;;;;;;5071498;28;20034;-38
2023/06/15 05:50:16;;;;;;;;;;;17.60;79.30;;;;;;5067990;28;19925;-40
2023/06/15 05:52:43;;;;;;;;;;;17.70;79.00;;;;;;5072250;28;20030;-38
2023/06/15 05:55:09;;;;;;;;;;;17.80;78.40;;;;;;5072383;28;19976;-41
2023/06/15 05:57:36;;;;;;;;;;;17.90;78.40;;;;;;5055062;28;19970;-40
2023/06/15 06:00:03;;;;;;;;;;;18.10;77.50;;;;;;5072668;28;19928;-40
2023/06/15 06:02:32;;;;;;;;;;;18.20;77.30;;;;;;5064210;28;20283;-40
2023/06/15 06:04:58;;;;;;;;;;;18.30;76.40;;;;;;5065398;28;19983;-41
2023/06/15 06:07:25;;;;;;;;;;;18.40;75.70;;;;;;5065841;28;20031;-37
2023/06/15 06:09:51;;;;;;;;;;;18.50;75.10;;;;;;5050338;28;19940;-40
2023/06/15 06:12:18;;;;;;;;;;;18.70;75.10;;;;;;5072688;28;19928;-40
2023/06/15 06:14:45;;;;;;;;;;;18.80;74.40;;;;;;5071902;28;20015;-40
2023/06/15 06:17:11;;;;;;;;;;;19.00;74.30;;;;;;5072798;28;19967;-39
2023/06/15 06:19:39;;;;;;;;;;;19.10;74.20;;;;;;5055582;28;19975;-41
2023/06/15 06:22:06;;;;;;;;;;;19.30;73.90;;;;;;5054395;28;19981;-41
2023/06/15 06:24:33;;;;;;;;;;;19.40;72.70;;;;;;5055485;28;19968;-41
2023/06/15 06:27:00;;;;;;;;;;;19.50;72.60;;;;;;5054430;28;20507;-41
2023/06/15 06:29:26;;;;;;;;;;;19.70;72.60;;;;;;5052167;28;20007;-41
2023/06/15 06:31:53;;;;;;;;;;;19.80;72.20;;;;;;5052861;28;20431;-41
2023/06/15 06:34:20;;;;;;;;;;;20.00;72.10;;;;;;5053115;28;19968;-41
2023/06/15 06:36:48;;;;;;;;;;;20.20;71.40;;;;;;5053000;28;19978;-41
2023/06/15 06:39:14;;;;;;;;;;;20.30;71.50;;;;;;5052035;28;19967;-40
2023/06/15 06:41:41;;;;;;;;;;;20.50;70.90;;;;;;5072680;28;19924;-40
2023/06/15 06:44:07;;;;;;;;;;;20.60;71.10;;;;;;5072522;28;19928;-41
2023/06/15 06:46:36;;;;;;;;;;;20.80;70.60;;;;;;5072738;28;19935;-42
2023/06/15 06:49:02;;;;;;;;;;;21.00;70.40;;;;;;5072648;28;20296;-41
2023/06/15 06:51:29;;;;;;;;;;;21.20;69.60;;;;;;5054272;28;19931;-42
2023/06/15 06:53:57;;;;;;;;;;;21.30;69.40;;;;;;5054698;28;19959;-42
2023/06/15 06:56:26;;;;;;;;;;;21.50;68.10;;;;;;5071773;28;20318;-40
2023/06/15 06:58:52;;;;;;;;;;;21.70;68.20;;;;;;5071591;28;19931;-41
2023/06/15 07:01:19;;;;;;;;;;;21.80;68.00;;;;;;5071651;28;19928;-40
2023/06/15 07:03:46;;;;;;;;;;;21.90;67.50;;;;;;5062328;28;19924;-41
2023/06/15 07:06:12;;;;;;;;;;;22.00;67.40;;;;;;5052782;28;19928;-41
2023/06/15 07:08:39;;;;;;;;;;;22.20;67.10;;;;;;5052343;28;20436;-42
2023/06/15 07:11:07;;;;;;;;;;;22.40;67.00;;;;;;5034808;28;19924;-41
2023/06/15 07:13:34;;;;;;;;;;;22.50;67.10;;;;;;5052728;28;19925;-42
2023/06/15 07:16:00;;;;;;;;;;;22.70;67.20;;;;;;5034741;28;19974;-40
2023/06/15 07:18:27;;;;;;;;;;;22.80;65.80;;;;;;5070955;28;19960;-41
2023/06/15 07:20:54;;;;;;;;;;;22.90;65.30;;;;;;5072261;28;19985;-42
2023/06/15 07:23:21;;;;;;;;;;;23.10;65.40;;;;;;5072238;28;19924;-41
2023/06/15 07:25:48;;;;;;;;;;;23.30;65.40;;;;;;5072192;28;19924;-38
2023/06/15 07:28:16;;;;;;;;;;;23.50;64.70;;;;;;5054013;28;19924;-41
2023/06/15 07:30:43;;;;;;;;;;;23.80;63.70;;;;;;5072358;28;19924;-42
2023/06/15 07:33:10;;;;;;;;;;;23.90;63.50;;;;;;5071484;28;19964;-41
2023/06/15 07:35:37;;;;;;;;;;;24.10;61.00;;;;;;5072264;28;19924;-41
2023/06/15 07:38:03;;;;;;;;;;;24.20;62.70;;;;;;5073245;28;19924;-42
2023/06/15 07:40:30;;;;;;;;;;;24.30;60.90;;;;;;5076162;28;19969;-41
2023/06/15 07:42:56;;;;;;;;;;;24.50;62.60;;;;;;5076157;28;20589;-43
2023/06/15 07:45:24;;;;;;;;;;;24.60;61.40;;;;;;5076307;28;19979;-41
2023/06/15 07:47:51;;;;;;;;;;;24.70;60.60;;;;;;5075525;28;20003;-42
2023/06/15 07:50:18;;;;;;;;;;;24.90;61.00;;;;;;5076332;28;19924;-42
2023/06/15 07:52:44;;;;;;;;;;;25.00;59.80;;;;;;5076133;28;19924;-42
2023/06/15 07:55:11;;;;;;;;;;;25.10;58.30;;;;;;5076063;28;19931;-42
2023/06/15 07:57:38;;;;;;;;;;;25.20;59.80;;;;;;5076294;28;19958;-40
2023/06/15 08:00:05;;;;;;;;;;;25.30;58.20;;;;;;5069752;28;19929;-41
2023/06/15 08:02:33;;;;;;;;;;;25.30;54.60;;;;;;5055059;28;19943;-41
2023/06/15 08:05:00;;;;;;;;;;;25.40;57.80;;;;;;5056040;28;19925;-40
2023/06/15 08:07:28;;;;;;;;;;;25.40;57.30;;;;;;5037932;28;19991;-41
2023/06/15 08:09:54;;;;;;;;;;;25.60;58.80;;;;;;5055843;28;19936;-42
2023/06/15 08:12:21;;;;;;;;;;;25.80;58.60;;;;;;5055628;28;20050;-42
2023/06/15 08:14:48;;;;;;;;;;;25.90;56.30;;;;;;5055826;28;19933;-40
2023/06/15 08:17:15;;;;;;;;;;;26.00;57.40;;;;;;5071946;28;19967;-42
2023/06/15 08:19:43;;;;;;;;;;;26.10;57.00;;;;;;5058205;28;19932;-42
2023/06/15 08:22:10;;;;;;;;;;;26.20;56.70;;;;;;5075708;28;20292;-42
2023/06/15 08:24:36;;;;;;;;;;;26.30;56.60;;;;;;5075438;28;19924;-40
2023/06/15 08:27:05;;;;;;;;;;;26.40;56.40;;;;;;5073817;28;19975;-42
2023/06/15 08:29:32;;;;;;;;;;;26.60;57.90;;;;;;5075703;28;19925;-42
2023/06/15 08:31:58;;;;;;;;;;;26.70;55.40;;;;;;5057588;28;19936;-42
2023/06/15 08:34:25;;;;;;;;;;;26.80;53.50;;;;;;5074322;28;19985;-39
2023/06/15 08:36:53;;;;;;;;;;;26.70;54.20;;;;;;5075093;28;19983;-42
2023/06/15 08:39:21;;;;;;;;;;;26.80;55.70;;;;;;5075080;28;19970;-42
2023/06/15 08:41:47;;;;;;;;;;;26.90;53.60;;;;;;5057508;28;19950;-41
2023/06/15 08:44:14;;;;;;;;;;;27.00;54.60;;;;;;5075106;28;20011;-42
2023/06/15 08:46:42;;;;;;;;;;;27.20;53.60;;;;;;5056911;28;19925;-40
2023/06/15 08:49:09;;;;;;;;;;;27.30;50.60;;;;;;5074420;28;20043;-42
2023/06/15 08:51:35;;;;;;;;;;;27.30;48.00;;;;;;5074821;28;20376;-41
2023/06/15 08:54:03;;;;;;;;;;;27.20;50.20;;;;;;5074830;28;19928;-39
2023/06/15 08:56:31;;;;;;;;;;;27.20;48.10;;;;;;5074006;28;19928;-42
2023/06/15 08:58:58;;;;;;;;;;;27.30;52.30;;;;;;5057293;28;19924;-42
2023/06/15 09:01:25;;;;;;;;;;;27.30;49.10;;;;;;5074890;28;19932;-42
2023/06/15 09:03:52;;;;;;;;;;;27.30;49.60;;;;;;5056159;28;19924;-42
2023/06/15 09:06:19;;;;;;;;;;;27.40;52.70;;;;;;5056989;28;20391;-42
2023/06/15 09:08:46;;;;;;;;;;;27.70;52.20;;;;;;5074520;28;20020;-41
2023/06/15 09:11:14;;;;;;;;;;;27.90;49.00;;;;;;5074545;28;20006;-42
2023/06/15 09:13:41;;;;;;;;;;;28.10;49.90;;;;;;5056987;28;19978;-43
2023/06/15 09:16:08;;;;;;;;;;;28.10;50.40;;;;;;5075079;28;20816;-43
2023/06/15 09:18:44;;;;;;;;;;;28.20;50.10;;;;;;5073398;28;20465;-42
2023/06/15 09:21:11;;;;;;;;;;;28.40;51.30;;;;;;5074421;28;20300;-42
2023/06/15 09:23:40;;;;;;;;;;;28.60;50.30;;;;;;5056353;28;19978;-42
2023/06/15 09:26:07;;;;;;;;;;;28.80;51.30;;;;;;5074569;28;19924;-41
2023/06/15 09:28:35;;;;;;;;;;;28.90;51.50;;;;;;5074074;28;20351;-40
2023/06/15 09:31:02;;;;;;;;;;;28.90;49.50;;;;;;5074395;28;20352;-42
2023/06/15 09:33:29;;;;;;;;;;;28.90;51.00;;;;;;5055508;28;19928;-42
2023/06/15 09:35:56;;;;;;;;;;;29.00;50.30;;;;;;5074199;28;19924;-42
2023/06/15 09:38:23;;;;;;;;;;;29.00;49.40;;;;;;5074410;28;19931;-41
2023/06/15 09:40:49;;;;;;;;;;;29.00;47.90;;;;;;5056558;28;19929;-41
2023/06/15 09:43:16;;;;;;;;;;;28.90;48.80;;;;;;5074103;28;19928;-42
2023/06/15 09:45:50;;;;;;;;;;;28.90;50.00;;;;;;5074041;28;20015;-42
2023/06/15 09:48:17;;;;;;;;;;;28.90;49.10;;;;;;5073184;28;19925;-42
2023/06/15 09:50:43;;;;;;;;;;;28.80;49.40;;;;;;5055719;28;19925;-42
2023/06/15 09:53:10;;;;;;;;;;;28.90;50.70;;;;;;5056368;28;19934;-41
2023/06/15 09:55:38;;;;;;;;;;;29.00;50.80;;;;;;5072786;28;20368;-42
2023/06/15 09:58:05;;;;;;;;;;;29.10;47.60;;;;;;5073879;28;20352;-43
2023/06/15 10:00:32;;;;;;;;;;;29.10;49.40;;;;;;5068685;28;19972;-44
2023/06/15 10:03:00;;;;;;;;;;;29.30;50.20;;;;;;5054994;28;19925;-42
2023/06/15 10:05:31;;;;;;;;;;;29.50;50.90;;;;;;5073481;28;19999;-42
2023/06/15 10:07:58;;;;;;;;;;;29.70;50.00;;;;;;5073645;28;19924;-41
2023/06/15 10:10:25;;;;;;;;;;;29.90;47.40;;;;;;5073671;28;19932;-43
2023/06/15 10:12:53;;;;;;;;;;;29.80;47.60;;;;;;5072630;28;20011;-42
2023/06/15 10:15:20;;;;;;;;;;;29.80;45.70;;;;;;5055685;28;20372;-42
2023/06/15 10:17:48;;;;;;;;;;;29.80;48.30;;;;;;5073268;28;19924;-40
2023/06/15 10:20:17;;;;;;;;;;;30.00;49.10;;;;;;5073206;28;19924;-41
2023/06/15 10:22:46;;;;;;;;;;;30.10;47.20;;;;;;5073375;28;19963;-41
2023/06/15 10:25:13;;;;;;;;;;;30.20;47.60;;;;;;5072781;28;19929;-42
2023/06/15 10:27:40;;;;;;;;;;;30.40;44.90;;;;;;5073044;28;19986;-41
2023/06/15 10:30:08;;;;;;;;;;;30.30;46.70;;;;;;5055509;28;19974;-42
2023/06/15 10:32:38;;;;;;;;;;;30.20;46.60;;;;;;5055427;28;19928;-41
2023/06/15 10:35:06;;;;;;;;;;;30.20;44.10;;;;;;5072920;28;19928;-41
2023/06/15 10:37:35;;;;;;;;;;;30.10;46.80;;;;;;5072313;28;20277;-41
2023/06/15 10:40:05;;;;;;;;;;;30.20;46.90;;;;;;5072831;28;19951;-41
2023/06/15 10:42:42;;;;;;;;;;;30.30;46.10;;;;;;5072768;28;20251;-42
2023/06/15 10:45:23;;;;;;;;;;;30.40;47.80;;;;;;5072770;28;19972;-42
2023/06/15 10:47:50;;;;;;;;;;;30.60;47.70;;;;;;5072565;28;20022;-42
2023/06/15 10:50:17;;;;;;;;;;;30.90;49.10;;;;;;5071540;28;19925;-42
2023/06/15 10:52:45;;;;;;;;;;;30.80;47.40;;;;;;5071966;28;20380;-42
2023/06/15 10:55:14;;;;;;;;;;;30.70;45.70;;;;;;5054740;28;19924;-41
2023/06/15 10:57:41;;;;;;;;;;;30.70;46.00;;;;;;5071824;28;19924;-42
2023/06/15 11:00:10;;;;;;;;;;;30.90;47.90;;;;;;5072408;28;20327;-42
2023/06/15 11:02:49;;;;;;;;;;;31.10;47.50;;;;;;5054523;28;19932;-41
2023/06/15 11:05:17;;;;;;;;;;;31.20;46.10;;;;;;5072538;28;19980;-41
2023/06/15 11:07:49;;;;;;;;;;;31.30;46.40;;;;;;5053955;28;19925;-41
2023/06/15 11:10:16;;;;;;;;;;;31.40;46.90;;;;;;5072548;28;19971;-41
2023/06/15 11:12:43;;;;;;;;;;;31.50;47.40;;;;;;5071852;28;20019;-42
2023/06/15 11:15:10;;;;;;;;;;;31.60;46.40;;;;;;5054973;28;19968;-43
2023/06/15 11:17:55;;;;;;;;;;;31.60;45.20;;;;;;5072193;28;19970;-43
2023/06/15 11:20:42;;;;;;;;;;;31.60;46.70;;;;;;5071128;28;19925;-42
2023/06/15 11:23:12;;;;;;;;;;;31.70;46.80;;;;;;5052958;28;20272;-42
2023/06/15 11:25:39;;;;;;;;;;;31.80;45.40;;;;;;5072320;28;19943;-43
2023/06/15 11:28:07;;;;;;;;;;;32.00;46.70;;;;;;5054150;28;19925;-43
2023/06/15 11:30:34;;;;;;;;;;;32.10;45.40;;;;;;5072427;28;19951;-42
2023/06/15 11:33:01;;;;;;;;;;;32.10;45.20;;;;;;5072232;28;20023;-41
2023/06/15 11:35:27;;;;;;;;;;;32.00;45.10;;;;;;5053742;28;20316;-42
2023/06/15 11:37:54;;;;;;;;;;;32.00;44.60;;;;;;5071726;28;20372;-41
2023/06/15 11:40:22;;;;;;;;;;;32.00;45.20;;;;;;5054462;28;19959;-42
2023/06/15 11:42:48;;;;;;;;;;;32.10;43.70;;;;;;5053959;28;20368;-41
2023/06/15 11:45:18;;;;;;;;;;;32.10;43.10;;;;;;5071716;28;19981;-41
2023/06/15 11:47:45;;;;;;;;;;;32.00;44.20;;;;;;5054281;28;19986;-42
2023/06/15 11:50:11;;;;;;;;;;;32.10;45.80;;;;;;5050141;28;19962;-42
2023/06/15 11:52:42;;;;;;;;;;;32.30;46.00;;;;;;5041374;28;20403;-40
2023/06/15 11:55:09;;;;;;;;;;;32.40;46.20;;;;;;5051971;28;19924;-42
2023/06/15 11:57:38;;;;;;;;;;;32.50;46.10;;;;;;5070073;28;19924;-41
2023/06/15 12:00:07;;;;;;;;;;;32.60;45.60;;;;;;5054199;28;19975;-42
2023/06/15 12:02:34;;;;;;;;;;;32.60;44.00;;;;;;5071021;28;19929;-43
2023/06/15 12:05:02;;;;;;;;;;;32.70;44.60;;;;;;5053827;28;19936;-43
2023/06/15 12:07:30;;;;;;;;;;;32.70;45.60;;;;;;5070161;28;19931;-42
2023/06/15 12:09:58;;;;;;;;;;;32.90;43.70;;;;;;5070831;28;19924;-43
2023/06/15 12:12:28;;;;;;;;;;;32.80;42.00;;;;;;5053023;28;19932;-43
2023/06/15 12:14:56;;;;;;;;;;;32.80;42.60;;;;;;5071278;28;20100;-41
2023/06/15 12:17:26;;;;;;;;;;;32.70;39.40;;;;;;5053300;28;19982;-43
2023/06/15 12:19:58;;;;;;;;;;;32.60;40.40;;;;;;5071665;28;20367;-43
2023/06/15 12:22:32;;;;;;;;;;;32.50;40.80;;;;;;5071765;28;19929;-42
2023/06/15 12:24:59;;;;;;;;;;;32.30;40.20;;;;;;5054501;28;19978;-41
2023/06/15 12:27:26;;;;;;;;;;;32.30;39.70;;;;;;5074966;28;19998;-40
2023/06/15 12:29:53;;;;;;;;;;;32.30;41.80;;;;;;5074200;28;19925;-42
2023/06/15 12:32:24;;;;;;;;;;;32.50;43.10;;;;;;5075271;28;20015;-42
2023/06/15 12:34:51;;;;;;;;;;;32.60;40.70;;;;;;5075144;28;20006;-42
2023/06/15 12:37:17;;;;;;;;;;;32.60;42.10;;;;;;5074477;28;19924;-42
2023/06/15 12:39:44;;;;;;;;;;;32.60;40.90;;;;;;5057164;28;19978;-43
2023/06/15 12:42:11;;;;;;;;;;;32.40;38.70;;;;;;5075047;28;20431;-42
2023/06/15 12:44:38;;;;;;;;;;;32.30;40.10;;;;;;5075041;28;20380;-42
2023/06/15 12:47:05;;;;;;;;;;;32.30;39.90;;;;;;5074190;28;19931;-43
2023/06/15 12:49:33;;;;;;;;;;;32.30;40.50;;;;;;5074881;28;20022;-43
2023/06/15 12:51:59;;;;;;;;;;;32.30;41.60;;;;;;5074983;28;20348;-42
2023/06/15 12:54:26;;;;;;;;;;;32.40;42.20;;;;;;5057316;28;20426;-40
2023/06/15 12:56:53;;;;;;;;;;;32.50;41.10;;;;;;5057184;28;20015;-44
2023/06/15 12:59:19;;;;;;;;;;;32.70;41.70;;;;;;5074721;28;19993;-42
2023/06/15 13:01:46;;;;;;;;;;;32.90;40.90;;;;;;5074490;28;19929;-42
2023/06/15 13:04:13;;;;;;;;;;;33.10;41.20;;;;;;5074584;28;19928;-42
2023/06/15 13:06:41;;;;;;;;;;;33.20;40.20;;;;;;5056763;28;20445;-42
2023/06/15 13:09:07;;;;;;;;;;;33.20;39.90;;;;;;5056736;28;19968;-42
2023/06/15 13:11:34;;;;;;;;;;;33.00;41.20;;;;;;5074393;28;19932;-42
2023/06/15 13:14:01;;;;;;;;;;;33.20;42.60;;;;;;5074378;28;19986;-41
2023/06/15 13:16:27;;;;;;;;;;;33.20;41.50;;;;;;5074278;28;19924;-42
2023/06/15 13:18:54;;;;;;;;;;;33.20;40.20;;;;;;5074215;28;19963;-41
2023/06/15 13:21:21;;;;;;;;;;;33.10;40.10;;;;;;5074419;28;20272;-43
2023/06/15 13:23:49;;;;;;;;;;;33.20;41.70;;;;;;5074562;28;20012;-40
2023/06/15 13:26:16;;;;;;;;;;;33.20;40.60;;;;;;5056580;28;19929;-43
2023/06/15 13:28:43;;;;;;;;;;;33.30;41.10;;;;;;5074109;28;19924;-43
2023/06/15 13:31:09;;;;;;;;;;;33.40;39.40;;;;;;5056207;28;20463;-42
2023/06/15 13:33:36;;;;;;;;;;;33.40;38.80;;;;;;5056326;28;19924;-43
2023/06/15 13:36:03;;;;;;;;;;;33.40;38.90;;;;;;5056215;28;19924;-43
2023/06/15 13:38:29;;;;;;;;;;;33.30;39.10;;;;;;5074118;28;19924;-41
2023/06/15 13:40:58;;;;;;;;;;;33.20;39.20;;;;;;5056216;28;20020;-43
2023/06/15 13:43:25;;;;;;;;;;;33.20;40.00;;;;;;5056297;28;20354;-41
2023/06/15 13:45:52;;;;;;;;;;;33.40;41.60;;;;;;5073755;28;19979;-43
2023/06/15 13:48:18;;;;;;;;;;;33.50;40.50;;;;;;5073701;28;20016;-42
2023/06/15 13:50:45;;;;;;;;;;;33.50;39.10;;;;;;5055878;28;20022;-42
2023/06/15 13:53:12;;;;;;;;;;;33.30;40.20;;;;;;5073818;28;19929;-42
2023/06/15 13:55:38;;;;;;;;;;;33.30;40.60;;;;;;5056020;28;20007;-42
2023/06/15 13:58:06;;;;;;;;;;;33.40;39.90;;;;;;5073782;28;19964;-42
2023/06/15 14:00:33;;;;;;;;;;;33.50;40.00;;;;;;5073519;28;19976;-42
2023/06/15 14:03:04;;;;;;;;;;;33.50;40.00;;;;;;5073419;28;20037;-41
2023/06/15 14:05:30;;;;;;;;;;;33.50;40.20;;;;;;5073506;28;20384;-42
2023/06/15 14:07:57;;;;;;;;;;;33.60;40.80;;;;;;5073538;28;20387;-42
2023/06/15 14:10:24;;;;;;;;;;;33.60;40.80;;;;;;5073505;28;19971;-42
2023/06/15 14:12:52;;;;;;;;;;;33.70;40.40;;;;;;5073290;28;19924;-43
2023/06/15 14:15:20;;;;;;;;;;;33.90;41.60;;;;;;5073252;28;19972;-43
2023/06/15 14:17:46;;;;;;;;;;;34.00;41.50;;;;;;5073328;28;19983;-42